Time;durP1;ratioP1;P1;durP2;ratioP2;P2;SDS_P1;SDS_P2;PMS_P1;PMS_P2;Temp;Humidity;BMP_temperature;BMP_pressure;BME280_temperature;BME280_humidity;BME280_pressure;Samples;Min_cycle;Max_cycle;Signal;HPM_P1;HPM_P2
2022/05/04 00:00:05;;;;;;;0.40;0.40;;;12.10;99.90;;;;;;4421215;32;20061;-69
2022/05/04 00:02:31;;;;;;;0.40;0.40;;;12.20;99.90;;;;;;4435458;32;20076;-69
2022/05/04 00:04:56;;;;;;;0.60;0.60;;;12.10;99.90;;;;;;4444938;32;20068;-69
2022/05/04 00:07:22;;;;;;;0.65;0.62;;;12.00;99.90;;;;;;4444776;32;20076;-68
2022/05/04 00:09:47;;;;;;;0.45;0.45;;;11.80;99.90;;;;;;4444690;32;20065;-70
2022/05/04 00:12:13;;;;;;;0.50;0.50;;;11.50;99.90;;;;;;4445006;32;20086;-69
2022/05/04 00:14:38;;;;;;;0.45;0.45;;;11.50;99.90;;;;;;4447844;32;20179;-69
2022/05/04 00:17:04;;;;;;;0.47;0.47;;;11.50;99.90;;;;;;4443493;32;20053;-69
2022/05/04 00:19:29;;;;;;;1.08;0.98;;;11.50;99.90;;;;;;4446423;32;20060;-69
2022/05/04 00:21:55;;;;;;;0.70;0.70;;;11.60;99.90;;;;;;4446417;32;20596;-69
2022/05/04 00:24:20;;;;;;;2.10;0.75;;;11.60;99.90;;;;;;4445689;32;20137;-69
2022/05/04 00:26:46;;;;;;;0.77;0.77;;;11.70;99.90;;;;;;4443055;32;20123;-69
2022/05/04 00:29:12;;;;;;;0.50;0.50;;;11.60;99.90;;;;;;4428413;32;20057;-69
2022/05/04 00:31:38;;;;;;;8.15;0.85;;;11.50;99.90;;;;;;4428283;32;20076;-69
2022/05/04 00:34:04;;;;;;;0.40;0.40;;;11.40;99.90;;;;;;4443782;32;20065;-69
2022/05/04 00:36:29;;;;;;;0.60;0.55;;;11.40;99.90;;;;;;4434614;32;20066;-70
2022/05/04 00:38:57;;;;;;;0.62;0.62;;;11.40;99.90;;;;;;4427543;32;20097;-69
2022/05/04 00:41:23;;;;;;;10.50;0.73;;;11.50;99.90;;;;;;4427098;32;20089;-69
2022/05/04 00:43:51;;;;;;;0.62;0.50;;;11.50;99.90;;;;;;4428687;32;20092;-69
2022/05/04 00:46:17;;;;;;;5.03;0.70;;;11.50;99.90;;;;;;4429878;32;20077;-69
2022/05/04 00:48:43;;;;;;;0.60;0.60;;;11.50;99.90;;;;;;4429495;32;20418;-69
2022/05/04 00:51:08;;;;;;;0.32;0.32;;;11.40;99.90;;;;;;4427780;32;20500;-69
2022/05/04 00:53:34;;;;;;;0.30;0.30;;;11.20;99.90;;;;;;4427741;32;20069;-69
2022/05/04 00:56:01;;;;;;;1.05;0.68;;;11.30;99.90;;;;;;4427275;32;20057;-69
2022/05/04 00:58:58;;;;;;;0.47;0.47;;;11.30;99.90;;;;;;4415897;32;20094;-69
2022/05/04 01:01:12;;;;;;;0.37;0.37;;;11.40;99.90;;;;;;4397511;32;20088;-69
2022/05/04 01:03:38;;;;;;;0.60;0.60;;;11.40;99.90;;;;;;4429222;32;20061;-69
2022/05/04 01:06:03;;;;;;;0.37;0.37;;;11.30;99.90;;;;;;4426374;32;20089;-69
2022/05/04 01:08:29;;;;;;;0.40;0.40;;;11.20;99.90;;;;;;4429928;32;20086;-69
2022/05/04 01:10:54;;;;;;;1.33;0.80;;;11.20;99.90;;;;;;4426548;32;20496;-69
2022/05/04 01:13:21;;;;;;;0.50;0.50;;;11.20;99.90;;;;;;4428315;32;20077;-69
2022/05/04 01:15:47;;;;;;;0.57;0.57;;;11.30;99.90;;;;;;4428633;32;20053;-69
2022/05/04 01:18:13;;;;;;;4.57;1.15;;;11.20;99.90;;;;;;4429110;32;20082;-69
2022/05/04 01:20:38;;;;;;;1.27;0.88;;;11.10;99.90;;;;;;4426546;32;20070;-69
2022/05/04 01:23:04;;;;;;;1.02;0.93;;;11.10;99.90;;;;;;4425644;32;20084;-69
2022/05/04 01:25:29;;;;;;;0.95;0.70;;;11.20;99.90;;;;;;4426643;32;20144;-70
2022/05/04 01:27:55;;;;;;;1.75;0.75;;;11.10;99.90;;;;;;4417840;32;20521;-69
2022/05/04 01:30:22;;;;;;;0.93;0.70;;;11.00;99.90;;;;;;4405847;32;20477;-69
2022/05/04 01:32:47;;;;;;;0.73;0.57;;;11.00;99.90;;;;;;4424327;32;20454;-70
2022/05/04 01:35:14;;;;;;;1.75;1.10;;;10.80;99.90;;;;;;4427754;32;20069;-69
2022/05/04 01:37:40;;;;;;;0.60;0.60;;;10.70;99.90;;;;;;4443899;32;20090;-69
2022/05/04 01:40:06;;;;;;;0.60;0.60;;;10.60;99.90;;;;;;4442664;32;20073;-69
2022/05/04 01:42:31;;;;;;;1.62;0.73;;;10.60;99.90;;;;;;4443919;32;20060;-69
2022/05/04 01:44:57;;;;;;;0.50;0.50;;;10.30;99.90;;;;;;4444710;32;20088;-69
2022/05/04 01:47:22;;;;;;;0.70;0.70;;;10.30;99.90;;;;;;4446028;32;20061;-69
2022/05/04 01:49:48;;;;;;;0.40;0.40;;;10.30;99.90;;;;;;4446680;32;20064;-69
2022/05/04 01:52:13;;;;;;;0.37;0.37;;;10.20;99.90;;;;;;4442865;32;20127;-69
2022/05/04 01:54:39;;;;;;;0.50;0.50;;;10.10;99.90;;;;;;4445487;32;20504;-69
2022/05/04 01:57:05;;;;;;;0.43;0.43;;;10.20;99.90;;;;;;4441770;32;20089;-69
2022/05/04 01:59:30;;;;;;;0.80;0.47;;;10.40;99.90;;;;;;4428301;32;20549;-69
2022/05/04 02:01:56;;;;;;;0.60;0.60;;;10.60;99.90;;;;;;4430635;32;20099;-70
2022/05/04 02:04:22;;;;;;;0.35;0.35;;;10.60;99.90;;;;;;4443547;32;20066;-69
2022/05/04 02:06:49;;;;;;;1.08;0.70;;;10.60;99.90;;;;;;4442621;32;20104;-69
2022/05/04 02:09:14;;;;;;;0.73;0.52;;;10.70;99.90;;;;;;4441916;32;20101;-69
2022/05/04 02:11:40;;;;;;;0.73;0.73;;;10.80;99.90;;;;;;4442925;32;20065;-70
2022/05/04 02:14:06;;;;;;;0.60;0.60;;;10.80;99.90;;;;;;4444650;32;20513;-70
2022/05/04 02:16:31;;;;;;;0.40;0.40;;;10.70;99.90;;;;;;4444219;32;20061;-69
2022/05/04 02:18:58;;;;;;;0.73;0.68;;;10.60;99.90;;;;;;4444400;32;20064;-70
2022/05/04 02:21:24;;;;;;;0.45;0.45;;;10.50;99.90;;;;;;4444152;32;20078;-68
2022/05/04 02:23:50;;;;;;;0.43;0.43;;;10.40;99.90;;;;;;4446566;32;20068;-69
2022/05/04 02:26:15;;;;;;;0.43;0.37;;;10.40;99.90;;;;;;4443400;32;20120;-69
2022/05/04 02:28:43;;;;;;;0.50;0.50;;;10.50;99.90;;;;;;4429506;32;20384;-69
2022/05/04 02:31:08;;;;;;;0.37;0.37;;;10.50;99.90;;;;;;4424856;32;20156;-68
2022/05/04 02:33:35;;;;;;;0.20;0.20;;;10.50;99.90;;;;;;4443690;32;20057;-68
2022/05/04 02:38:01;;;;;;;0.47;0.47;;;10.10;99.90;;;;;;4443306;32;20125;-68
2022/05/04 02:38:46;;;;;;;0.65;0.60;;;9.90;99.90;;;;;;4430787;32;20093;-68
2022/05/04 02:41:12;;;;;;;0.62;0.43;;;9.90;99.90;;;;;;4442152;32;20596;-69
2022/05/04 02:43:37;;;;;;;0.60;0.60;;;9.90;99.90;;;;;;4443221;32;20093;-70
2022/05/04 02:46:20;;;;;;;1.10;0.70;;;10.00;99.90;;;;;;4444868;32;20057;-68
2022/05/04 02:48:46;;;;;;;0.45;0.45;;;10.10;99.90;;;;;;4444509;32;20081;-69
2022/05/04 02:51:12;;;;;;;0.60;0.60;;;10.10;99.90;;;;;;4442548;32;20144;-70
2022/05/04 02:53:38;;;;;;;0.80;0.80;;;10.10;99.90;;;;;;4443024;32;20120;-68
2022/05/04 02:56:05;;;;;;;0.60;0.60;;;10.20;99.90;;;;;;4443131;32;20093;-69
2022/05/04 02:58:31;;;;;;;0.50;0.50;;;10.30;99.90;;;;;;4434037;32;20061;-69
2022/05/04 03:02:29;;;;;;;22.33;1.48;;;10.40;99.90;;;;;;4420582;32;20092;-69
2022/05/04 03:04:02;;;;;;;0.60;0.60;;;10.30;99.90;;;;;;4425780;32;20614;-69
2022/05/04 03:06:28;;;;;;;0.62;0.47;;;10.30;99.90;;;;;;4442476;32;20557;-69
2022/05/04 03:08:54;;;;;;;0.50;0.50;;;10.40;99.90;;;;;;4442166;32;20069;-69
2022/05/04 03:12:19;;;;;;;9.75;1.27;;;10.40;99.90;;;;;;4442159;32;20446;-68
2022/05/04 03:14:07;;;;;;;1.45;1.00;;;10.30;99.90;;;;;;4430811;32;20069;-68
2022/05/04 03:16:33;;;;;;;0.32;0.32;;;10.20;99.90;;;;;;4441934;32;20073;-69
2022/05/04 03:18:58;;;;;;;0.50;0.50;;;10.00;99.90;;;;;;4444598;32;20120;-68
2022/05/04 03:21:24;;;;;;;0.30;0.30;;;9.90;99.90;;;;;;4444148;32;20078;-70
2022/05/04 03:23:50;;;;;;;2.72;1.02;;;9.90;99.90;;;;;;4443612;32;20123;-68
2022/05/04 03:26:15;;;;;;;1.65;0.55;;;10.00;99.90;;;;;;4443599;32;20489;-69
2022/05/04 03:28:41;;;;;;;0.50;0.50;;;10.00;99.90;;;;;;4429420;32;20128;-69
2022/05/04 03:31:06;;;;;;;2.35;0.85;;;10.10;99.90;;;;;;4422574;32;20065;-68
2022/05/04 03:33:32;;;;;;;1.00;0.80;;;10.10;99.90;;;;;;4443612;32;20579;-69
2022/05/04 03:35:57;;;;;;;0.35;0.35;;;10.20;99.90;;;;;;4442574;32;20057;-69
2022/05/04 03:38:23;;;;;;;1.20;0.73;;;10.20;99.90;;;;;;4446361;32;20120;-69
2022/05/04 03:40:50;;;;;;;0.82;0.82;;;10.20;99.90;;;;;;4444633;32;20125;-69
2022/05/04 03:43:15;;;;;;;0.73;0.68;;;10.40;99.90;;;;;;4443844;32;20061;-71
2022/05/04 03:45:41;;;;;;;0.30;0.30;;;10.40;99.90;;;;;;4444980;32;20065;-69
2022/05/04 03:48:06;;;;;;;0.60;0.40;;;10.40;99.90;;;;;;4446991;32;20060;-70
2022/05/04 03:50:32;;;;;;;0.50;0.50;;;10.40;99.90;;;;;;4445335;32;20073;-69
2022/05/04 03:52:57;;;;;;;0.90;0.90;;;10.50;99.90;;;;;;4446054;32;20073;-69
2022/05/04 03:55:23;;;;;;;1.37;0.60;;;10.50;99.90;;;;;;4445670;32;20078;-69
2022/05/04 03:57:50;;;;;;;0.60;0.55;;;10.40;99.90;;;;;;4441265;32;20073;-69
2022/05/04 04:00:16;;;;;;;0.30;0.30;;;10.40;99.90;;;;;;4427272;32;20738;-69
2022/05/04 04:02:41;;;;;;;2.35;0.60;;;10.40;99.90;;;;;;4443172;32;20057;-69
2022/05/04 04:05:07;;;;;;;0.70;0.55;;;10.30;99.90;;;;;;4445309;32;20817;-69
2022/05/04 04:07:33;;;;;;;1.55;0.70;;;10.40;99.90;;;;;;4442801;32;20115;-69
2022/05/04 04:09:59;;;;;;;0.62;0.60;;;10.60;99.90;;;;;;4447848;32;20069;-69
2022/05/04 04:12:24;;;;;;;1.75;0.88;;;10.80;99.90;;;;;;4446625;32;20089;-69
2022/05/04 04:14:49;;;;;;;0.52;0.43;;;10.80;99.90;;;;;;4445063;32;20131;-69
2022/05/04 04:17:15;;;;;;;0.47;0.47;;;11.00;99.90;;;;;;4450581;32;20432;-69
2022/05/04 04:19:41;;;;;;;0.40;0.40;;;11.10;99.90;;;;;;4448432;32;20173;-69
2022/05/04 04:22:06;;;;;;;0.60;0.52;;;11.10;99.90;;;;;;4429278;32;21101;-69
2022/05/04 04:24:32;;;;;;;0.30;0.30;;;11.10;99.90;;;;;;4405974;32;20674;-69
2022/05/04 04:26:57;;;;;;;0.40;0.40;;;11.20;99.90;;;;;;4403392;32;20463;-69
2022/05/04 04:29:23;;;;;;;2.22;1.25;;;11.30;99.90;;;;;;4388508;32;20125;-70
2022/05/04 04:31:48;;;;;;;0.50;0.50;;;11.30;99.90;;;;;;4386696;32;20117;-70
2022/05/04 04:34:13;;;;;;;0.65;0.65;;;11.40;99.90;;;;;;4407943;32;20101;-70
2022/05/04 04:36:39;;;;;;;1.30;1.05;;;11.40;99.90;;;;;;4442716;32;20068;-70
2022/05/04 04:39:05;;;;;;;1.80;0.80;;;11.30;99.90;;;;;;4445914;32;20131;-70
2022/05/04 04:41:31;;;;;;;0.55;0.55;;;11.40;99.90;;;;;;4440463;32;20093;-70
2022/05/04 04:43:56;;;;;;;2.40;1.45;;;11.50;99.90;;;;;;4443486;32;20077;-70
2022/05/04 04:46:22;;;;;;;0.50;0.50;;;11.50;99.90;;;;;;4447403;32;20100;-70
2022/05/04 04:48:47;;;;;;;0.50;0.50;;;11.50;99.90;;;;;;4446984;32;20128;-70
2022/05/04 04:51:13;;;;;;;0.43;0.43;;;11.60;99.90;;;;;;4446713;32;20089;-70
2022/05/04 04:53:39;;;;;;;0.95;0.95;;;11.60;99.90;;;;;;4409689;32;20085;-70
2022/05/04 04:56:05;;;;;;;0.60;0.60;;;11.60;99.90;;;;;;4415600;32;20488;-70
2022/05/04 04:58:31;;;;;;;0.62;0.62;;;11.60;99.90;;;;;;4433273;32;20437;-70
2022/05/04 05:00:57;;;;;;;0.32;0.32;;;11.70;99.90;;;;;;4421630;32;20332;-70
2022/05/04 05:03:23;;;;;;;1.85;0.95;;;11.70;99.90;;;;;;4424805;32;20128;-70
2022/05/04 05:05:48;;;;;;;0.62;0.50;;;11.80;99.90;;;;;;4407639;32;20700;-70
2022/05/04 05:08:14;;;;;;;0.40;0.40;;;12.00;99.90;;;;;;4402230;32;20077;-70
2022/05/04 05:10:41;;;;;;;1.55;0.73;;;12.00;99.90;;;;;;4392213;32;20444;-69
2022/05/04 05:13:07;;;;;;;0.60;0.60;;;11.90;99.90;;;;;;4390795;32;20714;-70
2022/05/04 05:16:07;;;;;;;0.57;0.57;;;11.80;99.90;;;;;;4400420;32;20085;-70
2022/05/04 05:18:21;;;;;;;0.82;0.43;;;11.90;99.90;;;;;;4372439;32;20790;-70
2022/05/04 05:20:47;;;;;;;0.75;0.65;;;12.10;99.90;;;;;;4368561;32;20333;-70
2022/05/04 05:23:13;;;;;;;2.12;0.80;;;12.10;99.90;;;;;;4352397;32;20220;-70
2022/05/04 05:25:39;;;;;;;0.65;0.65;;;12.20;99.90;;;;;;4347146;32;20316;-69
2022/05/04 05:28:05;;;;;;;0.35;0.35;;;12.20;99.90;;;;;;4365500;32;20469;-69
2022/05/04 05:30:31;;;;;;;2.35;0.68;;;12.30;99.90;;;;;;4346227;32;20211;-69
2022/05/04 05:32:57;;;;;;;0.62;0.50;;;12.50;99.90;;;;;;4374599;32;20286;-69
2022/05/04 05:35:23;;;;;;;0.73;0.73;;;12.60;99.90;;;;;;4374161;32;21593;-70
2022/05/04 05:37:50;;;;;;;0.43;0.43;;;12.50;99.90;;;;;;4365777;32;20407;-70
2022/05/04 05:40:15;;;;;;;0.60;0.60;;;12.50;99.90;;;;;;4368543;32;20622;-69
2022/05/04 05:42:42;;;;;;;0.60;0.60;;;12.50;99.90;;;;;;4374797;32;20125;-70
2022/05/04 05:45:09;;;;;;;2.03;0.70;;;12.50;99.90;;;;;;4382235;32;20244;-69
2022/05/04 05:47:35;;;;;;;1.75;0.88;;;12.60;99.90;;;;;;4401609;32;20543;-68
2022/05/04 05:50:00;;;;;;;1.83;0.93;;;12.70;99.90;;;;;;4395025;32;20070;-68
2022/05/04 05:52:26;;;;;;;0.30;0.30;;;12.60;99.90;;;;;;4393760;32;20140;-68
2022/05/04 05:54:51;;;;;;;0.47;0.47;;;12.60;99.90;;;;;;4402468;32;20301;-68
2022/05/04 05:57:17;;;;;;;2.35;1.27;;;12.70;99.90;;;;;;4405953;32;20286;-68
2022/05/04 05:59:42;;;;;;;0.55;0.55;;;12.80;99.90;;;;;;4383478;32;20408;-69
2022/05/04 06:02:08;;;;;;;0.50;0.50;;;13.00;99.90;;;;;;4385293;32;20274;-67
2022/05/04 06:04:33;;;;;;;1.02;0.70;;;13.00;99.90;;;;;;4384118;32;20092;-67
2022/05/04 06:06:59;;;;;;;0.43;0.43;;;12.90;99.90;;;;;;4387485;32;20234;-67
2022/05/04 06:09:24;;;;;;;0.75;0.75;;;12.90;99.90;;;;;;4399504;32;20606;-68
2022/05/04 06:11:52;;;;;;;0.70;0.52;;;12.90;99.90;;;;;;4410215;32;20875;-67
2022/05/04 06:14:18;;;;;;;0.77;0.77;;;13.00;99.90;;;;;;4410390;32;20106;-68
2022/05/04 06:16:43;;;;;;;0.68;0.50;;;13.10;99.90;;;;;;4406376;32;20256;-67
2022/05/04 06:19:08;;;;;;;1.52;0.90;;;13.10;99.90;;;;;;4396840;32;20117;-68
2022/05/04 06:21:34;;;;;;;0.60;0.60;;;13.10;99.90;;;;;;4397929;32;20247;-68
2022/05/04 06:24:00;;;;;;;10.85;0.62;;;13.10;99.90;;;;;;4402875;32;20081;-68
2022/05/04 06:26:26;;;;;;;0.52;0.43;;;13.20;99.90;;;;;;4411628;32;20460;-68
2022/05/04 06:28:51;;;;;;;0.65;0.65;;;13.20;99.90;;;;;;4412841;32;20069;-68
2022/05/04 06:34:18;;;;;;;3.65;1.42;;;13.10;99.90;;;;;;4383213;32;20120;-70
2022/05/04 06:36:44;;;;;;;0.70;0.70;;;13.20;99.90;;;;;;4408365;32;20120;-70
2022/05/04 06:39:11;;;;;;;0.55;0.40;;;13.30;99.90;;;;;;4411513;32;20069;-69
2022/05/04 06:41:38;;;;;;;3.40;0.57;;;13.50;99.90;;;;;;4415131;32;20160;-68
2022/05/04 06:44:04;;;;;;;0.68;0.68;;;13.60;99.90;;;;;;4412970;32;20140;-69
2022/05/04 06:46:30;;;;;;;1.75;0.95;;;13.70;99.90;;;;;;4419596;32;20624;-69
2022/05/04 06:48:55;;;;;;;0.65;0.65;;;13.50;99.90;;;;;;4400224;32;20367;-68
2022/05/04 06:51:21;;;;;;;2.47;0.70;;;13.50;99.90;;;;;;4400207;32;20085;-68
2022/05/04 06:53:49;;;;;;;0.70;0.70;;;13.60;99.90;;;;;;4399347;32;20061;-69
2022/05/04 06:56:15;;;;;;;2.33;0.70;;;13.60;99.90;;;;;;4409624;32;20082;-68
2022/05/04 06:58:43;;;;;;;0.60;0.60;;;13.60;99.90;;;;;;4408130;32;20684;-68
2022/05/04 07:01:14;;;;;;;1.45;0.60;;;13.60;99.90;;;;;;4393079;32;20492;-68
2022/05/04 07:03:40;;;;;;;0.47;0.47;;;13.60;99.90;;;;;;4385071;32;20073;-68
2022/05/04 07:06:06;;;;;;;0.32;0.32;;;13.80;99.90;;;;;;4389588;32;20085;-69
2022/05/04 07:08:32;;;;;;;0.60;0.60;;;13.90;99.90;;;;;;4397681;32;20085;-68
2022/05/04 07:10:58;;;;;;;17.20;0.70;;;13.90;99.90;;;;;;4404122;32;20090;-68
2022/05/04 07:13:23;;;;;;;0.77;0.77;;;13.90;99.90;;;;;;4408837;32;20147;-68
2022/05/04 07:15:50;;;;;;;0.50;0.50;;;14.00;99.90;;;;;;4411257;32;20105;-68
2022/05/04 07:18:16;;;;;;;1.12;0.90;;;14.20;99.90;;;;;;4407617;32;20256;-68
2022/05/04 07:20:41;;;;;;;1.40;1.00;;;14.30;99.90;;;;;;4393860;32;21082;-67
2022/05/04 07:23:07;;;;;;;0.55;0.55;;;14.50;99.90;;;;;;4396345;32;21386;-68
2022/05/04 07:25:32;;;;;;;0.52;0.52;;;14.50;99.90;;;;;;4405774;32;20620;-68
2022/05/04 07:27:59;;;;;;;7.20;0.60;;;14.50;99.90;;;;;;4399039;32;20093;-69
2022/05/04 07:30:25;;;;;;;1.92;0.60;;;14.60;99.90;;;;;;4389133;32;20078;-68
2022/05/04 07:32:50;;;;;;;2.17;1.10;;;14.60;99.90;;;;;;4379218;32;20251;-68
2022/05/04 07:35:17;;;;;;;0.70;0.70;;;14.60;99.90;;;;;;4359986;32;158849;-68
2022/05/04 07:37:43;;;;;;;0.75;0.62;;;14.60;99.90;;;;;;4381668;32;20074;-68
2022/05/04 07:42:24;;;;;;;0.37;0.37;;;14.70;99.90;;;;;;4373016;32;20102;-69
2022/05/04 07:42:55;;;;;;;1.08;0.50;;;14.90;99.90;;;;;;4400329;32;20057;-70
2022/05/04 07:45:20;;;;;;;0.30;0.30;;;15.20;99.90;;;;;;4395885;32;20745;-70
2022/05/04 07:47:46;;;;;;;0.60;0.60;;;15.30;99.90;;;;;;4399215;32;20081;-68
2022/05/04 07:50:12;;;;;;;0.40;0.40;;;15.50;99.90;;;;;;4380825;32;20161;-68
2022/05/04 07:52:41;;;;;;;1.30;0.68;;;15.70;99.90;;;;;;4391077;32;20380;-69
2022/05/04 07:55:07;;;;;;;0.60;0.57;;;15.80;99.90;;;;;;4394237;32;20148;-68
2022/05/04 07:57:33;;;;;;;0.73;0.73;;;15.90;99.90;;;;;;4408976;32;20094;-68
2022/05/04 08:04:21;;;;;;;0.50;0.50;;;16.00;99.90;;;;;;4374669;32;20128;-68
2022/05/04 08:05:39;;;;;;;1.70;1.50;;;16.10;99.90;;;;;;4389305;32;20290;-68
2022/05/04 08:08:05;;;;;;;0.70;0.60;;;16.20;99.90;;;;;;4398616;32;20093;-68
2022/05/04 08:10:30;;;;;;;0.30;0.30;;;16.20;99.90;;;;;;4405526;32;20478;-69
2022/05/04 08:12:58;;;;;;;0.73;0.70;;;16.40;99.90;;;;;;4401342;32;20191;-69
2022/05/04 08:15:24;;;;;;;0.80;0.75;;;16.50;99.90;;;;;;4409406;32;20082;-69
2022/05/04 08:17:49;;;;;;;0.37;0.37;;;16.60;99.90;;;;;;4396946;32;20710;-69
2022/05/04 08:20:17;;;;;;;11.93;1.08;;;16.80;99.90;;;;;;4396161;32;20125;-69
2022/05/04 08:22:44;;;;;;;0.50;0.50;;;16.90;99.90;;;;;;4403377;32;20101;-69
2022/05/04 08:25:10;;;;;;;1.45;0.75;;;16.90;99.80;;;;;;4407488;32;20077;-69
2022/05/04 08:27:35;;;;;;;0.30;0.30;;;17.10;98.70;;;;;;4406799;32;20125;-69
2022/05/04 08:30:01;;;;;;;0.45;0.45;;;17.10;98.50;;;;;;4399787;32;20954;-68
2022/05/04 08:32:29;;;;;;;0.45;0.45;;;17.10;98.20;;;;;;4396828;32;20213;-68
2022/05/04 08:34:56;;;;;;;0.77;0.60;;;17.30;97.90;;;;;;4377767;32;20307;-68
2022/05/04 08:37:23;;;;;;;0.40;0.40;;;17.30;97.70;;;;;;4408136;32;20255;-68
2022/05/04 08:39:49;;;;;;;0.30;0.30;;;17.20;97.50;;;;;;4411670;32;20112;-68
2022/05/04 08:42:16;;;;;;;0.98;0.43;;;17.20;96.80;;;;;;4416779;32;20434;-70
2022/05/04 08:44:46;;;;;;;0.47;0.47;;;17.40;97.00;;;;;;4424262;32;20483;-70
2022/05/04 08:47:15;;;;;;;0.55;0.55;;;17.60;97.60;;;;;;4416718;32;20098;-72
2022/05/04 08:49:41;;;;;;;0.35;0.35;;;17.60;97.00;;;;;;4408430;32;20086;-71
2022/05/04 08:52:07;;;;;;;0.50;0.50;;;17.70;97.90;;;;;;4408864;32;20097;-68
2022/05/04 08:54:33;;;;;;;2.83;0.88;;;17.80;97.20;;;;;;4411983;32;20092;-70
2022/05/04 08:56:59;;;;;;;2.08;0.60;;;17.90;97.80;;;;;;4422884;32;20487;-71
2022/05/04 08:59:25;;;;;;;0.45;0.45;;;17.80;96.40;;;;;;4414838;32;20179;-70
2022/05/04 09:01:51;;;;;;;0.57;0.57;;;17.80;97.20;;;;;;4412472;32;20153;-70
2022/05/04 09:04:16;;;;;;;3.25;0.70;;;18.10;96.90;;;;;;4406505;32;20188;-72
2022/05/04 09:06:43;;;;;;;0.47;0.45;;;18.30;97.20;;;;;;4418183;32;20505;-72
2022/05/04 09:09:17;;;;;;;0.40;0.40;;;18.60;97.20;;;;;;4424316;32;20568;-72
2022/05/04 09:11:44;;;;;;;0.62;0.50;;;18.70;97.00;;;;;;4422353;32;20069;-70
2022/05/04 09:14:12;;;;;;;0.70;0.70;;;18.90;95.20;;;;;;4418122;32;20181;-70
2022/05/04 09:16:38;;;;;;;0.60;0.60;;;18.90;96.20;;;;;;4423391;32;20133;-70
2022/05/04 09:19:06;;;;;;;1.00;0.88;;;18.90;95.40;;;;;;4411367;32;20200;-70
2022/05/04 09:21:32;;;;;;;5.28;0.45;;;18.80;94.70;;;;;;4415202;32;20430;-69
2022/05/04 09:23:58;;;;;;;0.30;0.30;;;18.60;95.30;;;;;;4404625;32;20286;-68
2022/05/04 09:26:25;;;;;;;0.40;0.40;;;18.50;95.00;;;;;;4385439;32;20159;-70
2022/05/04 09:29:02;;;;;;;0.30;0.30;;;18.60;95.60;;;;;;4410111;32;20102;-72
2022/05/04 09:31:30;;;;;;;1.75;0.60;;;18.60;94.20;;;;;;4395962;32;20267;-70
2022/05/04 09:34:00;;;;;;;0.75;0.60;;;18.70;95.10;;;;;;4397175;32;20488;-69
2022/05/04 09:36:32;;;;;;;0.67;0.60;;;18.70;94.00;;;;;;4403872;32;20339;-72
2022/05/04 09:44:54;;;;;;;0.40;0.40;;;19.00;94.50;;;;;;4412539;32;20544;-72
2022/05/04 09:47:21;;;;;;;0.30;0.30;;;19.30;92.90;;;;;;4420137;32;20563;-71
2022/05/04 09:49:49;;;;;;;0.30;0.30;;;19.20;92.90;;;;;;4419360;32;20073;-72
2022/05/04 09:52:20;;;;;;;10.43;0.40;;;19.40;94.90;;;;;;4419381;32;20760;-69
2022/05/04 09:54:46;;;;;;;0.40;0.40;;;19.50;93.60;;;;;;4411555;32;20156;-70
2022/05/04 09:57:12;;;;;;;0.37;0.37;;;19.30;93.30;;;;;;4411454;32;20081;-71
2022/05/04 09:59:38;;;;;;;0.35;0.35;;;19.50;93.00;;;;;;4407977;32;20111;-71
2022/05/04 10:02:07;;;;;;;0.40;0.40;;;19.30;93.90;;;;;;4402805;32;20105;-73
2022/05/04 10:04:35;;;;;;;0.50;0.50;;;19.20;93.90;;;;;;4393501;32;20093;-72
2022/05/04 10:07:03;;;;;;;0.30;0.30;;;19.10;93.10;;;;;;4397893;32;20182;-72
2022/05/04 10:09:28;;;;;;;0.50;0.50;;;18.90;93.00;;;;;;4406032;32;20085;-72
2022/05/04 10:11:57;;;;;;;0.62;0.40;;;18.70;93.10;;;;;;4399002;32;20416;-72
2022/05/04 10:14:24;;;;;;;0.22;0.22;;;18.80;94.20;;;;;;4387210;32;20205;-72
2022/05/04 10:17:06;;;;;;;0.40;0.40;;;18.80;92.90;;;;;;4376116;32;20382;-72
2022/05/04 10:19:56;;;;;;;0.35;0.35;;;19.00;93.40;;;;;;4365282;32;20089;-73
2022/05/04 10:22:29;;;;;;;2.15;1.25;;;19.00;92.70;;;;;;4384546;32;20430;-71
2022/05/04 10:24:58;;;;;;;0.75;0.75;;;19.10;92.90;;;;;;4388141;32;20109;-72
2022/05/04 10:27:27;;;;;;;0.47;0.47;;;18.70;92.90;;;;;;4386757;32;20108;-73
2022/05/04 10:30:34;;;;;;;0.40;0.40;;;18.60;93.80;;;;;;4392676;32;20093;-71
2022/05/04 10:32:51;;;;;;;0.40;0.40;;;18.80;93.90;;;;;;4374924;32;20420;-73
2022/05/04 10:35:20;;;;;;;0.40;0.40;;;18.80;93.70;;;;;;4372416;32;20659;-72
2022/05/04 10:38:05;;;;;;;0.40;0.40;;;19.00;92.90;;;;;;4387652;32;20632;-72
2022/05/04 10:40:35;;;;;;;19.23;1.05;;;19.20;94.40;;;;;;4404745;32;20159;-73
2022/05/04 10:43:04;;;;;;;0.43;0.43;;;19.30;93.60;;;;;;4403923;32;20142;-72
2022/05/04 10:45:34;;;;;;;0.30;0.30;;;19.50;92.70;;;;;;4389801;32;20077;-71
2022/05/04 10:48:20;;;;;;;0.40;0.40;;;19.40;92.90;;;;;;4389641;32;20166;-73
2022/05/04 10:50:48;;;;;;;0.90;0.55;;;19.40;92.00;;;;;;4378869;32;20411;-73
2022/05/04 10:53:23;;;;;;;0.30;0.30;;;19.30;91.80;;;;;;4380445;32;20860;-73
2022/05/04 10:56:01;;;;;;;0.30;0.30;;;19.20;92.30;;;;;;4389391;32;20102;-73
2022/05/04 10:58:32;;;;;;;0.40;0.40;;;19.20;93.00;;;;;;4378743;32;21166;-73
2022/05/04 11:01:06;;;;;;;2.30;0.60;;;19.20;92.50;;;;;;4380077;32;20744;-72
2022/05/04 11:03:35;;;;;;;1.02;0.70;;;19.50;92.70;;;;;;4379137;32;20139;-72
2022/05/04 11:06:09;;;;;;;0.30;0.30;;;19.70;91.70;;;;;;4390853;32;20788;-72
2022/05/04 11:08:36;;;;;;;0.50;0.50;;;19.90;91.60;;;;;;4394050;32;20558;-72
2022/05/04 11:11:04;;;;;;;0.62;0.62;;;20.40;92.10;;;;;;4396205;32;20191;-73
2022/05/04 11:13:32;;;;;;;0.70;0.70;;;21.10;90.60;;;;;;4403105;32;20132;-72
2022/05/04 11:16:01;;;;;;;0.55;0.55;;;21.20;88.00;;;;;;4381764;32;20825;-73
2022/05/04 11:18:27;;;;;;;0.75;0.43;;;21.30;88.90;;;;;;4392865;32;20803;-71
2022/05/04 11:20:55;;;;;;;0.32;0.32;;;21.60;88.80;;;;;;4402798;32;20553;-74
2022/05/04 11:23:23;;;;;;;0.40;0.40;;;21.40;87.20;;;;;;4403111;32;20175;-74
2022/05/04 11:25:50;;;;;;;0.80;0.77;;;21.20;89.00;;;;;;4396584;32;20088;-73
2022/05/04 11:28:19;;;;;;;0.32;0.32;;;21.40;87.70;;;;;;4400058;32;20163;-72
2022/05/04 11:30:44;;;;;;;0.50;0.50;;;22.20;85.40;;;;;;4399965;32;20094;-71
2022/05/04 11:33:14;;;;;;;0.30;0.30;;;22.10;86.80;;;;;;4399582;32;20850;-73
2022/05/04 11:35:42;;;;;;;0.52;0.32;;;22.40;84.70;;;;;;4400191;32;20401;-72
2022/05/04 11:38:15;;;;;;;0.75;0.45;;;22.30;83.80;;;;;;4408354;32;20459;-73
2022/05/04 11:40:45;;;;;;;0.30;0.30;;;22.20;83.60;;;;;;4403423;32;21362;-73
2022/05/04 11:43:33;;;;;;;0.22;0.22;;;21.80;82.90;;;;;;4379889;32;20106;-73
2022/05/04 11:46:03;;;;;;;0.47;0.47;;;21.80;83.50;;;;;;4366845;32;20101;-72
2022/05/04 11:48:30;;;;;;;1.02;0.32;;;21.90;83.30;;;;;;4367672;32;20558;-74
2022/05/04 11:50:56;;;;;;;0.37;0.37;;;21.70;82.80;;;;;;4387666;32;20191;-74
2022/05/04 11:53:22;;;;;;;0.30;0.30;;;21.60;83.70;;;;;;4388331;32;20106;-74
2022/05/04 11:55:47;;;;;;;0.32;0.32;;;21.60;85.20;;;;;;4393496;32;20097;-73
2022/05/04 11:58:14;;;;;;;0.60;0.60;;;21.40;85.10;;;;;;4399987;32;20146;-74
2022/05/04 12:00:41;;;;;;;0.60;0.60;;;21.20;85.30;;;;;;4402870;32;20155;-74
2022/05/04 12:03:08;;;;;;;0.30;0.30;;;21.10;84.90;;;;;;4396289;32;20280;-73
2022/05/04 12:05:34;;;;;;;0.28;0.28;;;20.70;84.80;;;;;;4399588;32;20105;-72
2022/05/04 12:08:01;;;;;;;0.25;0.25;;;20.50;87.30;;;;;;4402302;32;20469;-72
2022/05/04 12:10:27;;;;;;;0.50;0.50;;;20.60;86.50;;;;;;4395861;32;20076;-72
2022/05/04 12:12:54;;;;;;;0.60;0.60;;;20.70;85.40;;;;;;4393102;32;20086;-72
2022/05/04 12:15:23;;;;;;;0.40;0.40;;;20.60;85.00;;;;;;4375743;32;20644;-73
2022/05/04 12:17:50;;;;;;;0.40;0.40;;;20.80;86.40;;;;;;4377189;32;20764;-73
2022/05/04 12:20:19;;;;;;;0.55;0.55;;;21.10;85.40;;;;;;4391506;32;20992;-73
2022/05/04 12:22:46;;;;;;;0.55;0.35;;;21.30;84.70;;;;;;4390948;32;20537;-74
2022/05/04 12:25:11;;;;;;;0.40;0.40;;;21.30;88.10;;;;;;4395340;32;20084;-72
2022/05/04 12:27:38;;;;;;;0.30;0.30;;;21.00;88.10;;;;;;4401815;32;20196;-73
2022/05/04 12:33:22;;;;;;;0.52;0.52;;;20.80;86.70;;;;;;4381092;32;20180;-73
2022/05/04 12:35:39;;;;;;;0.57;0.57;;;21.20;86.70;;;;;;4407431;32;20366;-73
2022/05/04 12:38:07;;;;;;;0.35;0.35;;;21.40;88.80;;;;;;4394473;32;20938;-72
2022/05/04 12:40:34;;;;;;;0.88;0.77;;;21.70;85.40;;;;;;4396897;32;20154;-74
2022/05/04 12:43:01;;;;;;;0.80;0.55;;;21.40;86.10;;;;;;4398918;32;20160;-73
2022/05/04 12:45:27;;;;;;;0.50;0.50;;;21.20;88.60;;;;;;4377675;32;20524;-72
2022/05/04 12:47:54;;;;;;;0.30;0.30;;;21.10;86.40;;;;;;4378151;32;20369;-72
2022/05/04 12:50:24;;;;;;;0.40;0.40;;;20.80;86.10;;;;;;4388542;32;20082;-72
2022/05/04 12:52:50;;;;;;;0.52;0.52;;;20.70;85.30;;;;;;4396313;32;20098;-73
2022/05/04 12:55:17;;;;;;;0.30;0.30;;;20.70;86.20;;;;;;4401990;32;20062;-73
2022/05/04 12:57:42;;;;;;;0.40;0.40;;;21.00;89.70;;;;;;4402576;32;20074;-73
2022/05/04 13:00:12;;;;;;;1.23;1.05;;;21.40;86.70;;;;;;4398630;32;21111;-74